createdAt,value
2023-04-01T00:01:29.753Z,96337.38
2023-04-01T00:03:58.172Z,96336.66
2023-04-01T00:06:26.775Z,96335.38
2023-04-01T00:08:55.961Z,96329.94
2023-04-01T00:11:24.990Z,96323.22
2023-04-01T00:13:53.204Z,96330.28
2023-04-01T00:16:22.754Z,96330.28
2023-04-01T00:18:52.115Z,96332.44
2023-04-01T00:21:22.310Z,96332.44
2023-04-01T00:23:52.181Z,96340.09
2023-04-01T00:26:23.306Z,96330.47
2023-04-01T00:28:55.347Z,96339.19
2023-04-01T00:31:25.201Z,96333.94
2023-04-01T00:33:53.612Z,96329.19
2023-04-01T00:36:24.081Z,96330.47
2023-04-01T00:38:53.163Z,96331.19
2023-04-01T00:41:22.704Z,96323.56
2023-04-01T00:43:52.173Z,96325.75
2023-04-01T00:46:20.971Z,96329.38
2023-04-01T00:48:56.837Z,96317.91
2023-04-01T00:51:29.787Z,96327.53
2023-04-01T00:53:59.446Z,96334.28
2023-04-01T00:56:31.484Z,96327.38
2023-04-01T00:59:06.459Z,96333.38
2023-04-01T01:01:36.738Z,96334.09
2023-04-01T01:04:05.384Z,96331.94
2023-04-01T01:06:41.655Z,96332.66
2023-04-01T01:09:15.788Z,96329.00
2023-04-01T01:11:50.936Z,96333.22
2023-04-01T01:14:36.606Z,96328.09
2023-04-01T01:17:15.109Z,96331.94
2023-04-01T01:20:15.502Z,96326.28
2023-04-01T01:23:16.218Z,96330.66
2023-04-01T01:25:47.666Z,96322.47
2023-04-01T01:28:45.713Z,96319.75
2023-04-01T01:31:50.358Z,96324.66
2023-04-01T01:34:24.257Z,96319.22
2023-04-01T01:36:56.666Z,96326.66
2023-04-01T01:39:31.761Z,96318.47
2023-04-01T01:42:02.582Z,96321.22
2023-04-01T01:44:33.220Z,96318.66
2023-04-01T01:47:02.017Z,96317.75
2023-04-01T01:49:32.130Z,96325.94
2023-04-01T01:52:00.459Z,96323.03
2023-04-01T01:54:27.824Z,96315.38
2023-04-01T01:57:08.499Z,96324.31
2023-04-01T01:59:38.796Z,96320.13
2023-04-01T02:02:09.168Z,96317.38
2023-04-01T02:04:41.699Z,96317.75
2023-04-01T02:07:12.905Z,96313.03
2023-04-01T02:09:40.382Z,96315.03
2023-04-01T02:12:09.696Z,96322.50
2023-04-01T02:14:47.206Z,96313.59
2023-04-01T02:17:27.631Z,96311.59
2023-04-01T02:19:57.793Z,96317.03
2023-04-01T02:22:30.965Z,96321.22
2023-04-01T02:25:10.197Z,96320.31
2023-04-01T02:27:37.530Z,96308.16
2023-04-01T02:30:05.022Z,96315.75
2023-04-01T02:32:32.713Z,96301.03
2023-04-01T02:35:00.991Z,96313.41
2023-04-01T02:37:28.295Z,96311.59
2023-04-01T02:39:55.310Z,96306.31
2023-04-01T02:42:22.372Z,96316.47
2023-04-01T02:44:49.448Z,96309.19
2023-04-01T02:47:16.488Z,96312.13
2023-04-01T02:49:43.872Z,96315.75
2023-04-01T02:52:11.033Z,96314.31
2023-04-01T02:54:38.054Z,96319.19
2023-04-01T02:57:05.299Z,96321.38
2023-04-01T02:59:32.423Z,96329.00
2023-04-01T03:01:59.617Z,96321.53
2023-04-01T03:04:26.827Z,96327.91
2023-04-01T03:06:53.907Z,96321.19
2023-04-01T03:09:21.790Z,96324.63
2023-04-01T03:11:48.860Z,96335.00
2023-04-01T03:14:15.898Z,96335.00
2023-04-01T03:16:43.044Z,96335.00
2023-04-01T03:19:10.299Z,96330.97
2023-04-01T03:21:37.609Z,96328.97
2023-04-01T03:24:04.871Z,96331.16
2023-04-01T03:26:32.194Z,96332.44
2023-04-01T03:28:59.370Z,96333.53
2023-04-01T03:31:26.930Z,96340.81
2023-04-01T03:33:55.195Z,96334.66
2023-04-01T03:36:22.591Z,96339.91
2023-04-01T03:38:49.668Z,96339.00
2023-04-01T03:41:18.002Z,96346.28
2023-04-01T03:43:45.402Z,96335.72
2023-04-01T03:46:12.670Z,96345.00
2023-04-01T03:48:39.960Z,96342.84
2023-04-01T03:51:08.804Z,96347.38
2023-04-01T03:53:35.901Z,96342.47
2023-04-01T03:56:07.665Z,96355.38
2023-04-01T03:58:35.665Z,96345.56
2023-04-01T04:01:02.839Z,96353.56
2023-04-01T04:03:30.019Z,96352.09
2023-04-01T04:05:57.543Z,96353.91
2023-04-01T04:08:24.941Z,96356.09
2023-04-01T04:10:58.255Z,96351.91
2023-04-01T04:13:25.475Z,96359.38
2023-04-01T04:15:52.519Z,96354.66
2023-04-01T04:18:19.652Z,96349.91
2023-04-01T04:20:52.196Z,96349.91
2023-04-01T04:23:19.448Z,96360.09
2023-04-01T04:26:01.423Z,96359.38
2023-04-01T04:28:28.919Z,96369.53
2023-04-01T04:30:56.060Z,96369.53
2023-04-01T04:33:23.866Z,96370.09
2023-04-01T04:35:51.551Z,96372.81
2023-04-01T04:38:18.707Z,96366.63
2023-04-01T04:40:45.932Z,96367.19
2023-04-01T04:43:14.485Z,96370.97
2023-04-01T04:45:42.109Z,96368.97
2023-04-01T04:48:10.568Z,96369.19
2023-04-01T04:50:37.662Z,96381.53
2023-04-01T04:53:05.087Z,96376.44
2023-04-01T04:55:32.313Z,96376.44
2023-04-01T04:57:59.518Z,96367.53
2023-04-01T05:00:26.549Z,96377.38
2023-04-01T05:02:53.971Z,96372.81
2023-04-01T05:05:21.083Z,96369.38
2023-04-01T05:07:48.111Z,96376.44
2023-04-01T05:10:15.478Z,96371.72
2023-04-01T05:12:42.609Z,96368.81
2023-04-01T05:15:10.026Z,96381.16
2023-04-01T05:17:37.525Z,96381.72
2023-04-01T05:20:05.861Z,96383.16
2023-04-01T05:22:32.934Z,96387.88
2023-04-01T05:25:00.005Z,96385.00
2023-04-01T05:27:27.225Z,96384.25
2023-04-01T05:29:54.277Z,96384.25
2023-04-01T05:32:21.352Z,96378.44
2023-04-01T05:34:51.730Z,96388.25
2023-04-01T05:37:19.329Z,96385.88
2023-04-01T05:39:46.392Z,96388.06
2023-04-01T05:42:13.411Z,96389.16
2023-04-01T05:44:40.613Z,96392.78
2023-04-01T05:47:07.682Z,96398.97
2023-04-01T05:49:35.033Z,96404.06
2023-04-01T05:52:02.077Z,96398.25
2023-04-01T05:54:29.978Z,96396.25
2023-04-01T05:56:57.092Z,96398.97
2023-04-01T05:59:24.378Z,96396.63
2023-04-01T06:01:51.506Z,96398.78
2023-04-01T06:04:19.185Z,96401.69
2023-04-01T06:06:46.644Z,96399.88
2023-04-01T06:09:25.285Z,96409.50
2023-04-01T06:12:24.383Z,96407.31
2023-04-01T06:15:08.728Z,96408.78
2023-04-01T06:17:48.647Z,96409.69
2023-04-01T06:20:27.966Z,96412.41
2023-04-01T06:23:20.224Z,96410.59
2023-04-01T06:26:00.920Z,96414.22
2023-04-01T06:28:35.424Z,96417.88
2023-04-01T06:31:09.346Z,96424.06
2023-04-01T06:33:43.692Z,96425.66
2023-04-01T06:36:32.030Z,96421.13
2023-04-01T06:39:11.364Z,96425.50
2023-04-01T06:42:12.435Z,96426.38
2023-04-01T06:44:58.362Z,96425.13
2023-04-01T06:47:36.068Z,96427.28
2023-04-01T06:50:46.408Z,96431.28
2023-04-01T06:53:40.672Z,96428.75
2023-04-01T06:56:19.405Z,96423.66
2023-04-01T06:58:54.300Z,96433.66
2023-04-01T07:01:28.887Z,96437.28
2023-04-01T07:04:03.289Z,96428.38
2023-04-01T07:06:39.378Z,96440.38
2023-04-01T07:09:11.485Z,96432.72
2023-04-01T07:11:39.595Z,96432.72
2023-04-01T07:14:32.946Z,96440.72
2023-04-01T07:17:27.481Z,96446.50
2023-04-01T07:20:03.991Z,96449.06
2023-04-01T07:22:45.571Z,96441.41
2023-04-01T07:25:16.183Z,96438.28
2023-04-01T07:27:43.856Z,96445.00
2023-04-01T07:30:17.265Z,96443.00
2023-04-01T07:32:57.621Z,96438.06
2023-04-01T07:35:44.982Z,96446.44
2023-04-01T07:38:16.761Z,96444.09
2023-04-01T07:40:51.370Z,96439.13
2023-04-01T07:43:25.166Z,96437.84
2023-04-01T07:46:22.844Z,96448.22
2023-04-01T07:49:07.242Z,96443.06
2023-04-01T07:52:00.429Z,96458.72
2023-04-01T07:54:51.192Z,96442.47
2023-04-01T07:57:28.935Z,96447.53
2023-04-01T08:00:33.885Z,96448.59
2023-04-01T08:03:11.487Z,96454.22
2023-04-01T08:05:44.621Z,96453.69
2023-04-01T08:08:28.368Z,96459.88
2023-04-01T08:11:08.121Z,96449.69
2023-04-01T08:13:49.929Z,96459.16
2023-04-01T08:16:39.066Z,96461.69
2023-04-01T08:19:41.413Z,96472.81
2023-04-01T08:22:14.580Z,96462.97
2023-04-01T08:24:47.542Z,96471.53
2023-04-01T08:27:23.672Z,96467.47
2023-04-01T08:30:04.193Z,96465.25
2023-04-01T08:32:39.777Z,96470.66
2023-04-01T08:35:18.267Z,96471.19
2023-04-01T08:37:46.320Z,96463.88
2023-04-01T08:40:39.004Z,96468.41
2023-04-01T08:43:16.123Z,96465.28
2023-04-01T08:46:01.056Z,96467.47
2023-04-01T08:48:41.413Z,96477.66
2023-04-01T08:51:49.608Z,96474.75
2023-04-01T08:54:31.082Z,96476.38
2023-04-01T08:57:05.427Z,96474.94
2023-04-01T09:00:13.987Z,96472.19
2023-04-01T09:03:14.190Z,96473.31
2023-04-01T09:05:53.257Z,96480.06
2023-04-01T09:08:32.265Z,96473.31
2023-04-01T09:11:20.759Z,96464.94
2023-04-01T09:14:08.431Z,96477.09
2023-04-01T09:16:49.737Z,96470.50
2023-04-01T09:19:44.973Z,96472.88
2023-04-01T09:22:43.353Z,96475.03
2023-04-01T09:25:17.198Z,96470.31
2023-04-01T09:28:16.805Z,96479.06
2023-04-01T09:30:46.596Z,96486.31
2023-04-01T09:34:06.074Z,96473.72
2023-04-01T09:36:47.047Z,96477.84
2023-04-01T09:39:36.129Z,96481.06
2023-04-01T09:42:27.684Z,96466.63
2023-04-01T09:45:00.433Z,96486.25
2023-04-01T09:48:12.411Z,96491.38
2023-04-01T09:50:48.563Z,96486.38
2023-04-01T09:53:46.433Z,96479.28
2023-04-01T09:56:47.857Z,96478.91
2023-04-01T09:59:28.015Z,96487.03
2023-04-01T10:02:14.910Z,96484.78
2023-04-01T10:04:57.231Z,96491.31
2023-04-01T10:07:52.023Z,96493.09
2023-04-01T10:10:49.561Z,96485.78
2023-04-01T10:13:39.447Z,96494.28
2023-04-01T10:16:39.167Z,96495.50
2023-04-01T10:19:36.165Z,96494.78
2023-04-01T10:22:28.069Z,96500.13
2023-04-01T10:25:10.087Z,96496.66
2023-04-01T10:28:00.907Z,96499.69
2023-04-01T10:30:54.894Z,96498.75
2023-04-01T10:33:43.506Z,96490.28
2023-04-01T10:36:13.574Z,96482.09
2023-04-01T10:38:57.372Z,96490.53
2023-04-01T10:41:42.867Z,96500.25
2023-04-01T10:44:54.671Z,96495.13
2023-04-01T10:47:45.367Z,96483.81
2023-04-01T10:50:40.032Z,96488.91
2023-04-01T10:53:33.676Z,96488.81
2023-04-01T10:56:38.703Z,96488.97
2023-04-01T10:59:14.492Z,96485.19
2023-04-01T11:02:11.337Z,96479.78
2023-04-01T11:05:00.650Z,96488.56
2023-04-01T11:08:06.676Z,96486.41
2023-04-01T11:10:58.752Z,96493.25
2023-04-01T11:13:38.466Z,96494.13
2023-04-01T11:16:27.632Z,96486.53
2023-04-01T11:19:22.451Z,96500.56
2023-04-01T11:22:11.177Z,96500.91
2023-04-01T11:25:05.780Z,96496.34
2023-04-01T11:27:54.266Z,96501.91
2023-04-01T11:30:33.806Z,96500.84
2023-04-01T11:33:10.766Z,96502.69
2023-04-01T11:35:43.972Z,96503.81
2023-04-01T11:38:21.094Z,96508.97
2023-04-01T11:40:55.794Z,96514.53
2023-04-01T11:43:34.149Z,96509.84
2023-04-01T11:46:20.880Z,96505.81
2023-04-01T11:49:01.768Z,96499.38
2023-04-01T11:51:44.877Z,96507.59
2023-04-01T11:54:52.439Z,96504.16
2023-04-01T11:57:53.773Z,96510.84
2023-04-01T12:01:00.842Z,96522.50
2023-04-01T12:03:55.329Z,96530.47
2023-04-01T12:06:37.223Z,96525.59
2023-04-01T12:09:15.901Z,96522.63
2023-04-01T12:11:54.049Z,96524.13
2023-04-01T12:14:40.616Z,96517.75
2023-04-01T12:17:41.071Z,96517.75
2023-04-01T12:20:31.535Z,96525.00
2023-04-01T12:23:11.089Z,96514.94
2023-04-01T12:25:50.146Z,96514.56
2023-04-01T12:28:44.811Z,96524.78
2023-04-01T12:31:20.629Z,96524.59
2023-04-01T12:33:54.569Z,96522.88
2023-04-01T12:36:58.938Z,96524.78
2023-04-01T12:39:50.908Z,96529.03
2023-04-01T12:42:32.907Z,96523.72
2023-04-01T12:45:32.243Z,96520.97
2023-04-01T12:48:24.169Z,96531.53
2023-04-01T12:51:11.040Z,96536.44
2023-04-01T12:54:03.814Z,96548.72
2023-04-01T12:56:51.341Z,96542.06
2023-04-01T12:59:48.975Z,96545.75
2023-04-01T13:02:47.257Z,96547.25
2023-04-01T13:05:45.320Z,96539.78
2023-04-01T13:08:37.907Z,96542.53
2023-04-01T13:11:11.339Z,96542.69
2023-04-01T13:13:49.647Z,96537.22
2023-04-01T13:16:43.565Z,96547.03
2023-04-01T13:20:04.361Z,96545.91
2023-04-01T13:22:38.863Z,96546.19
2023-04-01T13:25:10.745Z,96541.00
2023-04-01T13:27:45.021Z,96537.69
2023-04-01T13:30:11.951Z,96545.66
2023-04-01T13:33:14.462Z,96551.44
2023-04-01T13:35:49.732Z,96562.34
2023-04-01T13:38:48.177Z,96556.16
2023-04-01T13:41:43.624Z,96559.44
2023-04-01T13:44:15.756Z,96563.41
2023-04-01T13:46:54.300Z,96571.38
2023-04-01T13:49:32.898Z,96559.47
2023-04-01T13:52:13.664Z,96569.81
2023-04-01T13:54:50.848Z,96562.09
2023-04-01T13:57:25.970Z,96559.69
2023-04-01T14:00:21.665Z,96553.09
2023-04-01T14:02:56.079Z,96554.53
2023-04-01T14:05:43.105Z,96558.56
2023-04-01T14:08:43.959Z,96562.44
2023-04-01T14:11:21.191Z,96578.03
2023-04-01T14:14:01.217Z,96569.94
2023-04-01T14:16:36.105Z,96570.59
2023-04-01T14:19:31.391Z,96576.09
2023-04-01T14:22:18.802Z,96569.38
2023-04-01T14:25:05.348Z,96571.78
2023-04-01T14:28:12.729Z,96576.56
2023-04-01T14:30:44.676Z,96582.25
2023-04-01T14:33:42.261Z,96581.91
2023-04-01T14:36:39.251Z,96583.19
2023-04-01T14:39:31.245Z,96579.34
2023-04-01T14:42:22.107Z,96576.22
2023-04-01T14:45:07.754Z,96584.22
2023-04-01T14:47:43.350Z,96581.66
2023-04-01T14:50:14.933Z,96586.56
2023-04-01T14:52:47.820Z,96588.22
2023-04-01T14:55:27.552Z,96591.19
2023-04-01T14:58:09.152Z,96587.72
2023-04-01T15:00:51.126Z,96582.81
2023-04-01T15:03:31.232Z,96587.72
2023-04-01T15:06:16.512Z,96586.28
2023-04-01T15:08:55.395Z,96591.03
2023-04-01T15:12:07.572Z,96587.53
2023-04-01T15:14:49.556Z,96586.09
2023-04-01T15:18:13.598Z,96590.28
2023-04-01T15:21:02.271Z,96589.69
2023-04-01T15:23:57.828Z,96592.97
2023-04-01T15:26:48.535Z,96594.25
2023-04-01T15:29:26.310Z,96590.63
2023-04-01T15:32:10.094Z,96587.91
2023-04-01T15:34:41.666Z,96597.56
2023-04-01T15:37:14.913Z,96594.25
2023-04-01T15:39:47.781Z,96590.22
2023-04-01T15:42:48.830Z,96596.44
2023-04-01T15:45:23.662Z,96600.44
2023-04-01T15:48:01.118Z,96602.66
2023-04-01T15:50:47.129Z,96597.00
2023-04-01T15:53:38.321Z,96608.50
2023-04-01T15:56:17.122Z,96603.94
2023-04-01T15:59:07.895Z,96610.53
2023-04-01T16:02:01.417Z,96613.44
2023-04-01T16:05:04.012Z,96612.53
2023-04-01T16:08:02.818Z,96611.97
2023-04-01T16:10:41.896Z,96612.91
2023-04-01T16:13:43.891Z,96611.78
2023-04-01T16:16:15.040Z,96609.94
2023-04-01T16:19:21.870Z,96617.22
2023-04-01T16:22:18.704Z,96615.22
2023-04-01T16:25:07.696Z,96617.38
2023-04-01T16:27:41.560Z,96632.50
2023-04-01T16:30:36.210Z,96625.75
2023-04-01T16:33:31.135Z,96634.16
2023-04-01T16:36:25.577Z,96629.78
2023-04-01T16:39:09.902Z,96642.41
2023-04-01T16:41:50.179Z,96644.94
2023-04-01T16:44:25.532Z,96649.69
2023-04-01T16:47:00.113Z,96650.97
2023-04-01T16:49:33.512Z,96648.97
2023-04-01T16:52:11.072Z,96663.56
2023-04-01T16:54:41.204Z,96659.91
2023-04-01T16:57:11.343Z,96659.72
2023-04-01T16:59:54.311Z,96664.31
2023-04-01T17:02:26.505Z,96663.03
2023-04-01T17:05:05.747Z,96666.84
2023-04-01T17:07:48.053Z,96676.16
2023-04-01T17:10:42.323Z,96671.81
2023-04-01T17:13:12.250Z,96672.72
2023-04-01T17:16:03.321Z,96681.13
2023-04-01T17:18:47.223Z,96682.78
2023-04-01T17:21:34.412Z,96690.09
2023-04-01T17:24:24.054Z,96685.16
2023-04-01T17:27:06.753Z,96690.63
2023-04-01T17:29:39.237Z,96694.66
2023-04-01T17:32:14.688Z,96695.03
2023-04-01T17:35:08.631Z,96688.84
2023-04-01T17:37:40.110Z,96694.31
2023-04-01T17:40:35.809Z,96703.78
2023-04-01T17:43:45.885Z,96697.59
2023-04-01T17:46:33.007Z,96707.78
2023-04-01T17:49:16.036Z,96705.22
2023-04-01T17:51:59.214Z,96712.72
2023-04-01T17:54:38.700Z,96712.50
2023-04-01T17:57:32.075Z,96714.19
2023-04-01T18:00:05.850Z,96726.19
2023-04-01T18:03:27.485Z,96735.66
2023-04-01T18:06:16.045Z,96731.13
2023-04-01T18:09:00.135Z,96737.50
2023-04-01T18:11:53.466Z,96740.22
2023-04-01T18:14:25.264Z,96739.50
2023-04-01T18:17:16.572Z,96744.59
2023-04-01T18:20:03.786Z,96742.59
2023-04-01T18:22:44.198Z,96753.34
2023-04-01T18:25:26.085Z,96753.50
2023-04-01T18:28:19.559Z,96750.78
2023-04-01T18:31:01.991Z,96762.28
2023-04-01T18:34:02.772Z,96763.53
2023-04-01T18:36:39.777Z,96774.84
2023-04-01T18:39:36.795Z,96774.47
2023-04-01T18:42:25.269Z,96775.19
2023-04-01T18:44:57.607Z,96777.59
2023-04-01T18:47:37.420Z,96785.06
2023-04-01T18:50:14.829Z,96789.97
2023-04-01T18:52:45.669Z,96785.97
2023-04-01T18:55:24.695Z,96793.44
2023-04-01T18:57:59.973Z,96790.53
2023-04-01T19:00:29.650Z,96793.25
2023-04-01T19:03:12.801Z,96800.53
2023-04-01T19:05:41.752Z,96800.72
2023-04-01T19:08:27.034Z,96801.63
2023-04-01T19:11:33.936Z,96801.81
2023-04-01T19:14:16.341Z,96804.53
2023-04-01T19:16:55.811Z,96809.28
2023-04-01T19:19:43.801Z,96812.56
2023-04-01T19:22:39.071Z,96807.28
2023-04-01T19:25:23.674Z,96817.47
2023-04-01T19:27:56.624Z,96823.13
2023-04-01T19:30:28.206Z,96818.22
2023-04-01T19:33:16.816Z,96822.94
2023-04-01T19:35:50.598Z,96826.97
2023-04-01T19:38:21.688Z,96835.72
2023-04-01T19:41:07.477Z,96833.69
2023-04-01T19:44:01.038Z,96839.34
2023-04-01T19:46:38.006Z,96841.91
2023-04-01T19:49:36.675Z,96840.06
2023-04-01T19:52:16.815Z,96850.25
2023-04-01T19:55:05.558Z,96848.44
2023-04-01T19:57:50.125Z,96848.81
2023-04-01T20:00:28.553Z,96858.28
2023-04-01T20:03:09.236Z,96859.91
2023-04-01T20:05:45.237Z,96862.84
2023-04-01T20:08:48.349Z,96867.03
2023-04-01T20:11:39.033Z,96866.09
2023-04-01T20:14:30.914Z,96875.03
2023-04-01T20:17:08.969Z,96877.00
2023-04-01T20:19:40.319Z,96874.28
2023-04-01T20:22:26.834Z,96877.94
2023-04-01T20:24:55.907Z,96881.72
2023-04-01T20:27:28.279Z,96891.41
2023-04-01T20:30:29.096Z,96889.03
2023-04-01T20:33:03.100Z,96889.22
2023-04-01T20:35:45.610Z,96893.22
2023-04-01T20:38:54.239Z,96892.16
2023-04-01T20:41:23.923Z,96894.88
2023-04-01T20:43:59.263Z,96899.06
2023-04-01T20:46:53.567Z,96905.28
2023-04-01T20:49:36.936Z,96902.88
2023-04-01T20:52:18.673Z,96912.53
2023-04-01T20:55:07.937Z,96920.94
2023-04-01T20:58:00.522Z,96916.94
2023-04-01T21:00:41.906Z,96909.63
2023-04-01T21:03:36.919Z,96918.75
2023-04-01T21:06:31.938Z,96912.53
2023-04-01T21:09:31.233Z,96919.28
2023-04-01T21:12:04.270Z,96920.72
2023-04-01T21:14:59.536Z,96928.91
2023-04-01T21:17:52.416Z,96926.00
2023-04-01T21:20:27.344Z,96923.81
2023-04-01T21:23:22.417Z,96934.03
2023-04-01T21:26:04.422Z,96933.28
2023-04-01T21:28:50.321Z,96935.13
2023-04-01T21:31:26.990Z,96937.13
2023-04-01T21:34:18.055Z,96950.78
2023-04-01T21:37:05.544Z,96955.50
2023-04-01T21:39:43.622Z,96952.03
2023-04-01T21:42:13.406Z,96956.97
2023-04-01T21:45:10.459Z,96959.88
2023-04-01T21:47:43.905Z,96962.44
2023-04-01T21:50:30.078Z,96962.22
2023-04-01T21:53:06.171Z,96967.16
2023-04-01T21:55:33.848Z,96964.97
2023-04-01T21:58:30.001Z,96958.97
2023-04-01T22:01:07.076Z,96959.50
2023-04-01T22:03:46.638Z,96959.50
2023-04-01T22:06:27.080Z,96969.16
2023-04-01T22:09:06.420Z,96965.16
2023-04-01T22:11:55.592Z,96976.09
2023-04-01T22:14:42.876Z,96980.63
2023-04-01T22:17:31.820Z,96980.59
2023-04-01T22:20:16.997Z,96983.31
2023-04-01T22:23:27.524Z,96984.94
2023-04-01T22:26:30.160Z,96990.41
2023-04-01T22:29:12.348Z,96992.41
2023-04-01T22:31:42.747Z,96994.41
2023-04-01T22:34:39.666Z,97003.47
2023-04-01T22:37:15.409Z,96998.38
2023-04-01T22:40:09.978Z,97002.72
2023-04-01T22:42:42.999Z,97008.31
2023-04-01T22:45:13.370Z,97006.66
2023-04-01T22:48:03.195Z,97015.00
2023-04-01T22:50:51.979Z,97015.22
2023-04-01T22:53:28.523Z,97013.91
2023-04-01T22:55:58.646Z,97017.69
2023-04-01T22:58:35.545Z,97028.22
2023-04-01T23:01:07.357Z,97020.03
2023-04-01T23:03:37.996Z,97031.81
2023-04-01T23:06:05.707Z,97037.94
2023-04-01T23:09:07.125Z,97034.84
2023-04-01T23:11:43.222Z,97035.88
2023-04-01T23:14:24.259Z,97043.88
2023-04-01T23:16:55.915Z,97049.66
2023-04-01T23:19:30.681Z,97042.53
2023-04-01T23:22:12.389Z,97051.06
2023-04-01T23:24:51.888Z,97056.09
2023-04-01T23:27:24.754Z,97063.91
2023-04-01T23:29:53.597Z,97066.97
2023-04-01T23:32:25.734Z,97067.09
2023-04-01T23:34:55.173Z,97070.34
2023-04-01T23:37:23.552Z,97069.00
2023-04-01T23:40:02.176Z,97085.91
2023-04-01T23:42:34.553Z,97078.19
2023-04-01T23:45:04.896Z,97086.16
2023-04-01T23:47:32.874Z,97084.06
2023-04-01T23:50:12.829Z,97088.19
2023-04-01T23:53:01.919Z,97092.09
2023-04-01T23:55:32.948Z,97092.94
2023-04-01T23:58:06.180Z,97094.72
